Time;durP1;ratioP1;P1;durP2;ratioP2;P2;SDS_P1;SDS_P2;PMS_P1;PMS_P2;Temp;Humidity;BMP_temperature;BMP_pressure;BME280_temperature;BME280_humidity;BME280_pressure;Samples;Min_cycle;Max_cycle;Signal;HPM_P1;HPM_P2
2022/07/23 00:00:08;;;;;;;7.78;3.85;;;14.90;99.90;;;;;;5049466;28;20417;-80
2022/07/23 00:02:34;;;;;;;5.07;3.92;;;14.90;99.90;;;;;;5050750;28;20033;-81
2022/07/23 00:04:59;;;;;;;6.82;3.72;;;15.20;99.90;;;;;;5042067;28;20485;-81
2022/07/23 00:07:25;;;;;;;5.45;4.15;;;14.90;99.90;;;;;;5046820;28;20496;-82
2022/07/23 00:09:54;;;;;;;4.13;3.75;;;14.90;99.90;;;;;;5049882;28;20051;-81
2022/07/23 00:12:24;;;;;;;8.73;3.72;;;15.80;99.90;;;;;;5023775;28;20057;-81
2022/07/23 00:14:53;;;;;;;5.22;3.63;;;14.90;99.90;;;;;;5027748;28;20053;-81
2022/07/23 00:17:18;;;;;;;7.78;3.80;;;14.90;99.90;;;;;;5025003;28;20044;-81
2022/07/23 00:19:47;;;;;;;4.65;4.15;;;14.90;99.90;;;;;;5030616;28;20071;-81
2022/07/23 00:22:13;;;;;;;7.15;4.10;;;14.90;99.90;;;;;;5038264;28;20048;-81
2022/07/23 00:24:41;;;;;;;7.35;4.13;;;14.90;99.90;;;;;;5025112;28;20041;-81
2022/07/23 00:27:07;;;;;;;4.65;4.25;;;15.90;99.90;;;;;;5026569;28;20533;-81
2022/07/23 00:29:33;;;;;;;6.95;4.13;;;14.80;99.90;;;;;;5043716;28;20128;-81
2022/07/23 00:31:58;;;;;;;7.82;4.80;;;15.50;99.90;;;;;;5049273;28;20033;-81
2022/07/23 00:34:24;;;;;;;7.32;4.00;;;15.00;99.90;;;;;;5047512;28;20596;-80
2022/07/23 00:36:53;;;;;;;4.65;3.67;;;15.50;99.90;;;;;;5043475;28;20483;-81
2022/07/23 00:39:22;;;;;;;4.90;3.65;;;14.70;99.90;;;;;;5041239;28;20084;-81
2022/07/23 00:41:51;;;;;;;4.43;3.38;;;14.80;99.90;;;;;;5047306;28;20052;-81
2022/07/23 00:44:22;;;;;;;5.20;3.38;;;14.80;99.90;;;;;;5045784;28;20033;-80
2022/07/23 00:46:53;;;;;;;4.18;3.55;;;14.80;99.90;;;;;;5025378;28;20377;-81
2022/07/23 00:49:29;;;;;;;5.85;3.75;;;14.80;99.90;;;;;;5047852;28;20116;-81
2022/07/23 00:51:56;;;;;;;3.58;3.25;;;14.70;99.90;;;;;;5037404;28;20051;-81
2022/07/23 00:54:25;;;;;;;4.75;3.40;;;14.80;99.90;;;;;;5048039;28;20866;-80
2022/07/23 00:56:51;;;;;;;6.97;4.00;;;14.70;99.90;;;;;;5045213;28;20119;-80
2022/07/23 00:59:17;;;;;;;6.20;3.85;;;14.60;99.90;;;;;;5046002;28;20549;-81
2022/07/23 01:01:44;;;;;;;4.93;4.05;;;14.60;99.90;;;;;;5046925;28;20497;-80
2022/07/23 01:04:10;;;;;;;3.83;3.53;;;14.60;99.90;;;;;;5045936;28;20060;-80
2022/07/23 01:06:38;;;;;;;4.72;4.13;;;14.40;99.90;;;;;;5036627;28;20045;-81
2022/07/23 01:09:05;;;;;;;3.40;3.10;;;14.40;99.90;;;;;;5037660;28;20049;-81
2022/07/23 01:11:35;;;;;;;5.22;3.47;;;14.40;99.90;;;;;;5046063;28;20041;-81
2022/07/23 01:14:17;;;;;;;5.70;4.03;;;14.40;99.90;;;;;;5043257;28;20041;-80
2022/07/23 01:16:47;;;;;;;5.18;3.65;;;14.30;99.90;;;;;;5037638;28;20129;-80
2022/07/23 01:19:15;;;;;;;7.13;3.88;;;14.30;99.90;;;;;;5021160;28;20037;-80
2022/07/23 01:21:50;;;;;;;6.65;4.13;;;14.30;99.90;;;;;;5042859;28;20547;-81
2022/07/23 01:24:18;;;;;;;4.30;3.90;;;14.20;99.90;;;;;;5040312;28;20043;-80
2022/07/23 01:26:45;;;;;;;6.70;3.38;;;14.20;99.90;;;;;;5036563;28;20489;-80
2022/07/23 01:29:12;;;;;;;3.92;3.58;;;14.20;99.90;;;;;;5037410;28;20528;-80
2022/07/23 01:31:38;;;;;;;5.78;4.32;;;14.20;99.90;;;;;;5047851;28;20033;-80
2022/07/23 01:34:04;;;;;;;5.43;4.63;;;14.10;99.90;;;;;;5045489;28;20052;-81
2022/07/23 01:36:30;;;;;;;6.90;4.28;;;14.00;99.90;;;;;;5045450;28;20500;-81
2022/07/23 01:38:55;;;;;;;7.15;4.35;;;14.00;99.90;;;;;;5040444;28;20041;-81
2022/07/23 01:41:21;;;;;;;4.38;3.47;;;13.90;99.90;;;;;;5029005;28;20053;-81
2022/07/23 01:43:47;;;;;;;6.72;3.92;;;14.40;99.90;;;;;;5019580;28;20493;-81
2022/07/23 01:46:13;;;;;;;8.13;4.63;;;13.90;99.90;;;;;;5045828;28;20052;-81
2022/07/23 01:48:42;;;;;;;5.07;4.68;;;14.60;99.90;;;;;;5049245;28;20069;-81
2022/07/23 01:51:08;;;;;;;5.65;4.10;;;13.80;99.90;;;;;;5026924;28;20407;-81
2022/07/23 01:53:34;;;;;;;4.50;4.05;;;13.80;99.90;;;;;;5024418;28;20045;-81
2022/07/23 01:56:00;;;;;;;4.55;3.97;;;13.90;99.90;;;;;;5031987;28;20044;-81
2022/07/23 01:58:27;;;;;;;5.90;4.13;;;13.70;99.90;;;;;;5037728;28;20049;-81
2022/07/23 02:00:53;;;;;;;5.40;4.78;;;13.70;99.90;;;;;;5043872;28;20484;-81
2022/07/23 02:03:23;;;;;;;4.72;4.32;;;13.70;99.90;;;;;;5030416;28;20044;-81
2022/07/23 02:05:48;;;;;;;4.57;3.92;;;13.70;99.90;;;;;;5043338;28;20435;-82
2022/07/23 02:08:18;;;;;;;6.63;5.10;;;13.70;99.90;;;;;;5045629;28;20120;-81
2022/07/23 02:10:48;;;;;;;8.23;5.00;;;13.60;99.90;;;;;;5032226;28;20044;-81
2022/07/23 02:13:17;;;;;;;5.72;4.72;;;13.60;99.90;;;;;;5029302;28;20072;-81
2022/07/23 02:15:43;;;;;;;7.55;5.70;;;14.00;99.90;;;;;;5037235;28;20457;-80
2022/07/23 02:18:08;;;;;;;5.70;5.20;;;13.50;99.90;;;;;;5028183;28;20116;-81
2022/07/23 02:20:34;;;;;;;8.32;5.50;;;13.50;99.90;;;;;;5041210;28;20072;-81
2022/07/23 02:22:59;;;;;;;5.57;5.15;;;13.50;99.90;;;;;;5038024;28;20040;-81
2022/07/23 02:25:25;;;;;;;7.65;5.15;;;13.50;99.90;;;;;;5038643;28;20480;-81
2022/07/23 02:27:53;;;;;;;5.85;5.13;;;13.50;99.90;;;;;;5045406;28;20037;-81
2022/07/23 02:30:22;;;;;;;6.05;5.45;;;13.50;99.90;;;;;;5040000;28;20136;-81
2022/07/23 02:32:47;;;;;;;6.97;4.85;;;14.50;99.90;;;;;;5037570;28;20400;-81
2022/07/23 02:35:13;;;;;;;8.98;5.22;;;13.30;99.90;;;;;;5044233;28;20614;-81
2022/07/23 02:37:39;;;;;;;8.13;5.35;;;13.80;99.90;;;;;;5041414;28;20115;-81
2022/07/23 02:40:08;;;;;;;7.85;5.75;;;13.30;99.90;;;;;;5040551;28;20041;-81
2022/07/23 02:42:33;;;;;;;8.98;5.25;;;13.30;99.90;;;;;;5039788;28;20444;-81
2022/07/23 02:44:59;;;;;;;6.38;4.93;;;13.40;99.90;;;;;;5037101;28;20049;-81
2022/07/23 02:47:25;;;;;;;7.20;5.15;;;14.50;99.90;;;;;;5038728;28;20052;-80
2022/07/23 02:49:53;;;;;;;6.72;4.68;;;13.50;99.90;;;;;;5039920;28;20037;-81
2022/07/23 02:52:19;;;;;;;6.35;4.40;;;13.50;99.90;;;;;;5038139;28;20115;-80
2022/07/23 02:54:47;;;;;;;33.35;5.70;;;13.50;99.90;;;;;;5048111;28;20523;-81
2022/07/23 02:57:13;;;;;;;7.95;4.70;;;13.50;99.90;;;;;;5046617;28;20166;-80
2022/07/23 02:59:42;;;;;;;7.07;4.57;;;13.50;99.90;;;;;;5048656;28;20143;-81
2022/07/23 03:02:08;;;;;;;6.40;4.40;;;13.50;99.90;;;;;;5031666;28;20053;-81
2022/07/23 03:04:34;;;;;;;6.18;4.32;;;14.50;99.90;;;;;;5045323;28;20032;-80
2022/07/23 03:07:00;;;;;;;8.32;5.45;;;13.70;99.90;;;;;;5027969;28;20033;-81
2022/07/23 03:09:25;;;;;;;5.07;4.68;;;13.40;99.90;;;;;;5047235;28;20033;-82
2022/07/23 03:11:51;;;;;;;7.32;5.22;;;14.00;99.90;;;;;;5037759;28;20045;-81
2022/07/23 03:14:17;;;;;;;5.43;4.88;;;14.30;99.90;;;;;;5048853;28;20041;-81
2022/07/23 03:16:43;;;;;;;6.63;5.13;;;14.10;99.90;;;;;;5043512;28;20037;-81
2022/07/23 03:19:08;;;;;;;6.28;4.60;;;13.20;99.90;;;;;;5051637;28;20529;-81
2022/07/23 03:21:34;;;;;;;8.13;5.07;;;13.30;99.90;;;;;;5044210;28;20414;-80
2022/07/23 03:24:00;;;;;;;5.13;4.53;;;13.20;99.90;;;;;;5050716;28;20079;-80
2022/07/23 03:26:26;;;;;;;4.97;4.40;;;13.30;99.90;;;;;;5028584;28;20073;-81
2022/07/23 03:28:52;;;;;;;5.40;4.90;;;13.20;99.90;;;;;;5027493;28;20045;-81
2022/07/23 03:31:24;;;;;;;4.47;4.07;;;13.20;99.90;;;;;;5044957;28;20493;-81
2022/07/23 03:33:52;;;;;;;5.47;4.95;;;13.20;99.90;;;;;;5027008;28;20481;-81
2022/07/23 03:36:17;;;;;;;6.47;5.15;;;13.20;99.90;;;;;;5044828;28;20074;-81
2022/07/23 03:38:43;;;;;;;5.07;4.68;;;13.20;99.90;;;;;;5045097;28;20045;-81
2022/07/23 03:41:08;;;;;;;4.55;4.15;;;13.10;99.90;;;;;;5047859;28;20118;-80
2022/07/23 03:43:34;;;;;;;6.25;4.35;;;13.20;99.90;;;;;;5024328;28;20037;-81
2022/07/23 03:45:59;;;;;;;5.40;4.85;;;13.00;99.90;;;;;;5050559;28;20128;-80
2022/07/23 03:48:25;;;;;;;4.60;3.92;;;13.00;99.90;;;;;;5031220;28;20032;-80
2022/07/23 03:50:53;;;;;;;6.20;4.13;;;13.00;99.90;;;;;;5038692;28;20563;-80
2022/07/23 03:53:21;;;;;;;6.57;4.45;;;13.00;99.90;;;;;;5050007;28;20460;-80
2022/07/23 03:55:48;;;;;;;5.25;4.00;;;13.00;99.90;;;;;;5026757;28;20040;-80
2022/07/23 03:58:14;;;;;;;4.68;4.25;;;13.00;99.90;;;;;;5033609;28;20552;-80
2022/07/23 04:00:41;;;;;;;7.38;4.43;;;12.90;99.90;;;;;;5015191;28;20200;-80
2022/07/23 04:03:06;;;;;;;5.07;4.57;;;12.90;99.90;;;;;;5035484;28;20219;-80
2022/07/23 04:05:32;;;;;;;4.38;3.95;;;12.90;99.90;;;;;;5042686;28;20148;-80
2022/07/23 04:07:57;;;;;;;11.00;4.47;;;12.90;99.90;;;;;;5050583;28;20048;-81
2022/07/23 04:10:23;;;;;;;5.18;4.68;;;12.90;99.90;;;;;;5047261;28;20190;-80
2022/07/23 04:12:49;;;;;;;6.70;4.20;;;12.90;99.90;;;;;;5045304;28;20044;-81
2022/07/23 04:15:17;;;;;;;6.28;4.45;;;13.00;99.90;;;;;;5051094;28;20037;-80
2022/07/23 04:17:43;;;;;;;5.28;4.22;;;13.60;99.90;;;;;;5040498;28;20048;-80
2022/07/23 04:20:12;;;;;;;4.90;4.30;;;12.90;99.90;;;;;;5052225;28;20129;-81
2022/07/23 04:22:37;;;;;;;7.05;4.60;;;12.90;99.90;;;;;;5042490;28;20036;-81
2022/07/23 04:25:04;;;;;;;8.07;4.70;;;13.20;99.90;;;;;;5051629;28;20036;-81
2022/07/23 04:27:33;;;;;;;6.43;4.13;;;12.90;99.90;;;;;;5027856;28;20049;-81
2022/07/23 04:29:59;;;;;;;5.45;4.95;;;12.90;99.90;;;;;;5041575;28;20142;-80
2022/07/23 04:32:27;;;;;;;6.28;4.75;;;13.00;99.90;;;;;;5041730;28;20120;-80
2022/07/23 04:34:53;;;;;;;6.45;4.15;;;13.50;99.90;;;;;;5048498;28;20125;-81
2022/07/23 04:37:19;;;;;;;7.07;4.30;;;13.00;99.90;;;;;;5044669;28;20088;-80
2022/07/23 04:39:52;;;;;;;7.38;3.88;;;13.70;99.90;;;;;;5042700;28;20044;-81
2022/07/23 04:42:18;;;;;;;4.70;4.27;;;13.00;99.90;;;;;;5040643;28;20122;-80
2022/07/23 04:44:47;;;;;;;7.30;4.47;;;13.00;99.90;;;;;;5044151;28;20365;-81
2022/07/23 04:47:15;;;;;;;4.22;3.80;;;13.60;99.90;;;;;;5027761;28;20090;-80
2022/07/23 04:49:40;;;;;;;3.63;3.33;;;13.30;99.90;;;;;;5044049;28;20044;-80
2022/07/23 04:52:06;;;;;;;4.95;4.55;;;13.10;99.90;;;;;;5043308;28;20041;-81
2022/07/23 04:54:32;;;;;;;12.73;5.03;;;13.10;99.90;;;;;;5046330;28;20133;-81
2022/07/23 04:56:57;;;;;;;5.65;4.75;;;13.80;99.90;;;;;;5042327;28;20041;-80
2022/07/23 04:59:23;;;;;;;6.63;4.63;;;12.90;99.90;;;;;;5042240;28;20044;-82
2022/07/23 05:01:48;;;;;;;8.68;5.60;;;12.90;99.90;;;;;;5029061;28;20056;-81
2022/07/23 05:04:17;;;;;;;6.32;4.40;;;12.90;99.90;;;;;;5027018;28;20048;-80
2022/07/23 05:06:43;;;;;;;5.93;4.70;;;12.90;99.90;;;;;;5043749;28;20146;-81
2022/07/23 05:09:08;;;;;;;7.22;5.32;;;13.40;99.90;;;;;;5042625;28;20040;-81
2022/07/23 05:11:34;;;;;;;7.97;4.80;;;12.90;99.90;;;;;;5024291;28;20436;-81
2022/07/23 05:13:59;;;;;;;7.57;4.97;;;12.90;99.90;;;;;;5040491;28;20051;-80
2022/07/23 05:16:25;;;;;;;8.82;4.90;;;12.90;99.90;;;;;;5042660;28;20052;-81
2022/07/23 05:18:54;;;;;;;6.88;4.72;;;12.90;99.90;;;;;;5040701;28;20041;-81
2022/07/23 05:21:20;;;;;;;6.40;4.13;;;12.90;99.90;;;;;;5032515;28;20047;-81
2022/07/23 05:23:54;;;;;;;6.72;4.63;;;13.40;99.90;;;;;;5042323;28;20037;-81
2022/07/23 05:26:20;;;;;;;5.43;4.25;;;12.90;99.90;;;;;;5042332;28;20071;-82
2022/07/23 05:28:48;;;;;;;7.07;4.18;;;13.00;99.90;;;;;;5039154;28;20045;-81
2022/07/23 05:31:17;;;;;;;11.82;8.45;;;13.70;99.90;;;;;;5047681;28;20097;-82
2022/07/23 05:33:43;;;;;;;7.78;5.22;;;12.90;99.90;;;;;;5022183;28;20400;-82
2022/07/23 05:36:09;;;;;;;8.35;5.90;;;13.00;99.90;;;;;;5048068;28;20521;-80
2022/07/23 05:38:35;;;;;;;11.25;5.30;;;13.10;99.90;;;;;;5041884;28;20033;-81
2022/07/23 05:41:01;;;;;;;5.93;4.72;;;13.10;99.90;;;;;;5007694;28;20125;-79
2022/07/23 05:43:27;;;;;;;6.55;4.68;;;13.10;99.90;;;;;;5048500;28;20119;-80
2022/07/23 05:45:53;;;;;;;9.02;4.72;;;13.40;99.90;;;;;;5046571;28;20606;-80
2022/07/23 05:48:19;;;;;;;9.57;4.78;;;13.20;99.90;;;;;;5045988;28;20041;-80
2022/07/23 05:50:44;;;;;;;5.25;3.63;;;13.40;99.90;;;;;;5046738;28;20037;-80
2022/07/23 05:53:10;;;;;;;6.85;4.18;;;13.40;99.90;;;;;;5044656;28;20048;-80
2022/07/23 05:55:36;;;;;;;5.20;3.80;;;13.50;99.90;;;;;;5045521;28;20056;-79
2022/07/23 05:58:01;;;;;;;6.50;3.70;;;13.60;99.90;;;;;;5046266;28;20052;-79
2022/07/23 06:00:28;;;;;;;5.57;3.30;;;14.10;99.90;;;;;;5046447;28;20491;-80
2022/07/23 06:02:56;;;;;;;6.25;3.42;;;13.70;99.90;;;;;;5042944;28;20389;-80
2022/07/23 06:05:23;;;;;;;3.67;3.38;;;13.80;99.90;;;;;;5038861;28;20052;-81
2022/07/23 06:07:49;;;;;;;6.43;2.97;;;13.90;99.90;;;;;;5048329;28;20479;-81
2022/07/23 06:10:15;;;;;;;3.42;2.50;;;14.00;99.90;;;;;;5047405;28;20078;-81
2022/07/23 06:12:43;;;;;;;3.55;2.53;;;14.00;99.90;;;;;;5046003;28;20036;-83
2022/07/23 06:15:16;;;;;;;4.78;3.70;;;14.20;99.90;;;;;;5046084;28;20099;-81
2022/07/23 06:17:42;;;;;;;8.23;6.27;;;14.30;99.90;;;;;;5013634;28;20037;-81
2022/07/23 06:20:12;;;;;;;2.63;1.50;;;14.40;99.90;;;;;;5035184;28;20827;-81
2022/07/23 06:22:38;;;;;;;2.88;1.20;;;14.50;99.90;;;;;;5048462;28;20132;-83
2022/07/23 06:25:10;;;;;;;5.85;1.35;;;14.60;99.90;;;;;;5045961;28;20068;-82
2022/07/23 06:27:36;;;;;;;3.55;1.20;;;14.70;99.90;;;;;;5041962;28;20044;-82
2022/07/23 06:30:02;;;;;;;1.85;1.15;;;14.80;99.90;;;;;;5051193;28;20451;-82
2022/07/23 06:32:27;;;;;;;4.18;1.00;;;14.90;99.90;;;;;;5043921;28;20037;-82
2022/07/23 06:34:53;;;;;;;1.65;0.70;;;15.40;99.90;;;;;;5039400;28;20171;-82
2022/07/23 06:37:18;;;;;;;1.45;0.57;;;15.10;99.90;;;;;;5046187;28;20038;-81
2022/07/23 06:39:45;;;;;;;3.78;0.80;;;15.20;99.90;;;;;;5040927;28;20512;-82
2022/07/23 06:42:11;;;;;;;3.10;0.55;;;16.00;99.90;;;;;;5045295;28;20135;-82
2022/07/23 06:44:37;;;;;;;5.03;4.07;;;15.30;99.90;;;;;;5046217;28;20041;-80
2022/07/23 06:47:03;;;;;;;7.70;1.23;;;15.30;99.90;;;;;;5054530;28;20052;-82
2022/07/23 06:49:29;;;;;;;2.83;2.53;;;15.40;99.90;;;;;;5043107;28;20084;-81
2022/07/23 06:51:55;;;;;;;3.55;1.05;;;15.50;99.90;;;;;;5055622;28;20078;-80
2022/07/23 06:54:23;;;;;;;0.70;0.45;;;15.50;99.90;;;;;;5028936;28;20085;-80
2022/07/23 06:56:51;;;;;;;2.53;0.77;;;15.70;99.90;;;;;;5043508;28;20075;-82
2022/07/23 06:59:17;;;;;;;1.95;0.40;;;15.70;99.90;;;;;;5037978;28;20088;-79
2022/07/23 07:01:43;;;;;;;1.83;0.43;;;15.60;99.90;;;;;;5047135;28;20128;-75
2022/07/23 07:04:08;;;;;;;2.28;0.28;;;15.70;99.90;;;;;;5024065;28;20029;-75
2022/07/23 07:06:34;;;;;;;1.55;0.30;;;16.70;99.90;;;;;;5008449;28;20044;-79
2022/07/23 07:09:01;;;;;;;2.45;0.60;;;15.80;99.90;;;;;;5040094;28;20467;-80
2022/07/23 07:11:26;;;;;;;3.65;0.32;;;16.30;99.90;;;;;;5029478;28;20068;-79
2022/07/23 07:13:52;;;;;;;0.30;0.20;;;15.80;99.90;;;;;;5042996;28;20084;-79
2022/07/23 07:16:18;;;;;;;1.05;0.22;;;15.70;99.90;;;;;;5044020;28;20064;-79
2022/07/23 07:18:43;;;;;;;2.58;0.30;;;15.70;99.90;;;;;;5046068;28;20048;-79
2022/07/23 07:21:09;;;;;;;0.73;0.30;;;15.80;99.90;;;;;;5026146;28;20041;-78
2022/07/23 07:23:35;;;;;;;1.30;0.40;;;15.80;99.90;;;;;;5045706;28;20405;-75
2022/07/23 07:26:00;;;;;;;0.47;0.20;;;15.80;99.90;;;;;;5045149;28;20073;-76
2022/07/23 07:28:26;;;;;;;0.60;0.28;;;15.90;99.90;;;;;;5040714;28;20038;-78
2022/07/23 07:30:52;;;;;;;5.82;0.63;;;16.30;99.90;;;;;;5036993;28;20041;-77
2022/07/23 07:33:17;;;;;;;2.20;0.17;;;15.90;99.90;;;;;;5042448;28;20556;-76
2022/07/23 07:35:43;;;;;;;4.07;0.43;;;16.00;99.90;;;;;;5027558;28;20041;-79
2022/07/23 07:38:09;;;;;;;3.67;0.40;;;16.00;99.90;;;;;;5038562;28;20033;-78
2022/07/23 07:40:34;;;;;;;1.58;0.35;;;16.10;99.90;;;;;;5048509;28;20469;-77
2022/07/23 07:43:01;;;;;;;1.88;0.20;;;16.80;99.90;;;;;;5033424;28;20045;-78
2022/07/23 07:45:29;;;;;;;2.22;0.20;;;16.20;99.90;;;;;;5031243;28;20068;-88
2022/07/23 07:47:55;;;;;;;1.10;0.40;;;15.60;99.90;;;;;;5030013;28;20388;-79
2022/07/23 07:50:21;;;;;;;0.98;0.00;;;16.30;99.90;;;;;;5047152;28;20043;-76
2022/07/23 07:52:48;;;;;;;0.68;0.10;;;17.60;99.90;;;;;;5046341;28;20044;-77
2022/07/23 07:55:16;;;;;;;1.48;0.90;;;16.50;99.90;;;;;;5031383;28;20052;-74
2022/07/23 07:57:41;;;;;;;0.95;0.68;;;16.50;99.90;;;;;;5049357;28;20045;-77
2022/07/23 08:00:09;;;;;;;0.95;0.20;;;16.50;99.90;;;;;;5044450;28;20068;-76
2022/07/23 08:02:41;;;;;;;0.30;0.10;;;16.70;99.90;;;;;;5048007;28;20492;-75
2022/07/23 08:05:10;;;;;;;0.55;0.10;;;16.80;99.90;;;;;;5042715;28;20107;-76
2022/07/23 08:07:37;;;;;;;1.15;0.30;;;16.80;99.90;;;;;;5046351;28;20041;-76
2022/07/23 08:10:03;;;;;;;1.17;0.10;;;16.90;99.90;;;;;;5029232;28;20069;-75
2022/07/23 08:12:54;;;;;;;1.55;0.20;;;16.90;99.90;;;;;;5024455;28;20084;-75
2022/07/23 08:15:25;;;;;;;2.00;0.30;;;16.90;99.90;;;;;;5010976;28;20081;-76
2022/07/23 08:17:50;;;;;;;1.98;0.20;;;17.00;99.90;;;;;;5051199;28;20407;-76
2022/07/23 08:20:18;;;;;;;1.25;0.17;;;17.00;99.90;;;;;;5011129;28;20044;-76
2022/07/23 08:22:50;;;;;;;1.23;0.50;;;17.00;99.90;;;;;;5039526;28;20046;-75
2022/07/23 08:25:21;;;;;;;4.05;0.57;;;17.00;99.90;;;;;;5026630;28;20496;-79
2022/07/23 08:27:47;;;;;;;6.28;0.20;;;17.00;99.90;;;;;;5051378;28;20435;-78
2022/07/23 08:30:16;;;;;;;1.25;0.30;;;17.10;99.90;;;;;;5049510;28;20142;-78
2022/07/23 08:33:03;;;;;;;1.33;0.20;;;17.50;99.90;;;;;;5050411;28;20072;-79
2022/07/23 08:35:32;;;;;;;2.67;0.20;;;17.30;99.90;;;;;;5046416;28;20045;-78
2022/07/23 08:37:59;;;;;;;0.95;0.30;;;17.30;99.90;;;;;;4337075;28;10000721;-74
2022/07/23 08:40:30;;;;;;;0.63;0.22;;;17.40;99.90;;;;;;5046517;28;20044;-73
2022/07/23 08:42:56;;;;;;;0.25;0.10;;;17.40;99.90;;;;;;5041349;28;20041;-73
2022/07/23 08:45:23;;;;;;;0.80;0.20;;;17.40;99.90;;;;;;5031723;28;20385;-73
2022/07/23 08:47:51;;;;;;;2.22;0.60;;;17.40;99.90;;;;;;5044316;28;20042;-72
2022/07/23 08:50:18;;;;;;;2.17;0.40;;;17.50;99.90;;;;;;5048818;28;20041;-73
2022/07/23 08:52:44;;;;;;;2.00;0.30;;;17.50;99.90;;;;;;5041295;28;20437;-73
2022/07/23 08:55:10;;;;;;;0.73;0.20;;;17.50;99.90;;;;;;5045186;28;20140;-74
2022/07/23 08:57:36;;;;;;;2.05;0.30;;;18.10;99.90;;;;;;5028205;28;20160;-73
2022/07/23 09:00:04;;;;;;;0.50;0.20;;;17.90;99.90;;;;;;5044177;28;20052;-73
2022/07/23 09:02:29;;;;;;;0.85;0.10;;;17.60;99.90;;;;;;5029108;28;20443;-74
2022/07/23 09:04:55;;;;;;;0.40;0.20;;;18.00;99.90;;;;;;5027863;28;20040;-72
2022/07/23 09:07:24;;;;;;;0.35;0.13;;;18.00;99.90;;;;;;5009939;28;20402;-73
2022/07/23 09:10:06;;;;;;;0.80;0.10;;;17.70;99.90;;;;;;5025487;28;20041;-73
2022/07/23 09:12:31;;;;;;;1.55;0.10;;;17.70;99.90;;;;;;5043539;28;20041;-73
2022/07/23 09:15:04;;;;;;;3.03;0.20;;;17.70;99.90;;;;;;5042863;28;20174;-75
2022/07/23 09:17:40;;;;;;;1.65;0.10;;;17.80;99.90;;;;;;5041511;28;20041;-75
2022/07/23 09:20:15;;;;;;;1.85;0.30;;;17.80;99.90;;;;;;5026433;28;20388;-75
2022/07/23 09:22:46;;;;;;;1.08;0.22;;;17.70;99.90;;;;;;5043712;28;20415;-75
2022/07/23 09:25:15;;;;;;;0.63;0.20;;;17.80;99.90;;;;;;5041125;28;20041;-75
2022/07/23 09:27:49;;;;;;;2.67;0.40;;;17.80;99.90;;;;;;5045296;28;20501;-76
2022/07/23 09:30:16;;;;;;;1.42;0.20;;;18.00;99.90;;;;;;5041936;28;20060;-74
2022/07/23 09:32:42;;;;;;;1.77;0.20;;;17.80;99.90;;;;;;5041744;28;20047;-74
2022/07/23 09:35:08;;;;;;;1.20;0.30;;;18.00;99.90;;;;;;5029168;28;20381;-74
2022/07/23 09:37:34;;;;;;;2.58;0.63;;;18.00;99.90;;;;;;5042708;28;20033;-75
2022/07/23 09:40:09;;;;;;;0.68;0.20;;;17.80;99.90;;;;;;5044110;28;20635;-76
2022/07/23 09:42:35;;;;;;;1.20;0.28;;;17.80;99.90;;;;;;5041517;28;20048;-76
2022/07/23 09:45:01;;;;;;;1.75;0.30;;;18.30;99.90;;;;;;5042385;28;20131;-72
2022/07/23 09:47:30;;;;;;;4.45;0.52;;;18.20;99.90;;;;;;5043514;28;20480;-71
2022/07/23 09:50:05;;;;;;;1.02;0.40;;;18.00;99.90;;;;;;5038756;28;20068;-73
2022/07/23 09:52:49;;;;;;;1.60;0.20;;;18.00;99.90;;;;;;5025423;28;20041;-75
2022/07/23 09:55:18;;;;;;;4.68;0.30;;;18.00;99.90;;;;;;5047301;28;20122;-77
2022/07/23 09:57:46;;;;;;;0.80;0.10;;;17.90;99.90;;;;;;5024044;28;20068;-76
2022/07/23 10:00:15;;;;;;;1.05;0.15;;;17.90;99.90;;;;;;5042577;28;20053;-77
2022/07/23 10:02:41;;;;;;;0.70;0.40;;;18.00;99.90;;;;;;5044294;28;20144;-77
2022/07/23 10:05:07;;;;;;;5.95;0.32;;;17.90;99.90;;;;;;5040452;28;20124;-77
2022/07/23 10:07:36;;;;;;;2.83;0.25;;;18.00;99.90;;;;;;5041782;28;20312;-75
2022/07/23 10:10:03;;;;;;;1.90;0.20;;;18.00;99.90;;;;;;5043015;28;20044;-76
2022/07/23 10:14:58;;;;;;;4.03;0.40;;;17.90;99.90;;;;;;5036457;28;20076;-74
2022/07/23 10:17:24;;;;;;;2.40;0.40;;;18.00;99.90;;;;;;5041408;28;20551;-78
2022/07/23 10:19:51;;;;;;;8.73;1.13;;;18.30;99.90;;;;;;5045940;28;20072;-77
2022/07/23 10:22:25;;;;;;;1.08;0.30;;;18.10;99.90;;;;;;5045362;28;20049;-75
2022/07/23 10:25:13;;;;;;;0.80;0.45;;;18.20;99.90;;;;;;5022636;28;20083;-75
2022/07/23 10:27:45;;;;;;;2.83;0.88;;;18.20;99.90;;;;;;5024345;28;20580;-78
2022/07/23 10:30:21;;;;;;;1.08;0.35;;;19.10;99.90;;;;;;5027264;28;20095;-80
2022/07/23 10:33:05;;;;;;;2.42;0.43;;;18.20;99.90;;;;;;5027806;28;20385;-79
2022/07/23 10:35:43;;;;;;;220.60;25.45;;;18.20;99.90;;;;;;5040330;28;20056;-78
2022/07/23 10:38:30;;;;;;;3.75;0.60;;;18.20;99.90;;;;;;5042496;28;20485;-76
2022/07/23 10:41:00;;;;;;;1.83;0.32;;;18.20;99.90;;;;;;5042153;28;20086;-75
2022/07/23 10:43:27;;;;;;;1.15;0.40;;;18.20;99.90;;;;;;5046607;28;20072;-74
2022/07/23 10:45:53;;;;;;;1.20;0.75;;;18.40;99.90;;;;;;5039054;28;20314;-75
2022/07/23 10:48:21;;;;;;;3.22;0.68;;;18.30;99.90;;;;;;5024459;28;20558;-75
2022/07/23 10:51:08;;;;;;;1.00;0.30;;;18.50;99.90;;;;;;5022108;28;20503;-75
2022/07/23 10:53:53;;;;;;;0.60;0.30;;;18.30;99.90;;;;;;5044259;28;20116;-76
2022/07/23 10:56:56;;;;;;;0.55;0.40;;;18.90;99.90;;;;;;5039593;28;20996;-76
2022/07/23 10:59:22;;;;;;;1.83;0.75;;;18.40;99.90;;;;;;5043118;28;20500;-79
2022/07/23 11:01:47;;;;;;;2.92;0.30;;;19.20;99.90;;;;;;5035974;28;20075;-79
2022/07/23 11:04:16;;;;;;;0.68;0.40;;;18.30;99.90;;;;;;5046290;28;20045;-78
2022/07/23 11:06:48;;;;;;;4.30;0.70;;;18.20;99.90;;;;;;5006677;28;20041;-78
2022/07/23 11:09:29;;;;;;;0.47;0.40;;;18.20;99.90;;;;;;5009114;28;20132;-78
2022/07/23 11:12:20;;;;;;;2.42;0.60;;;18.20;99.90;;;;;;5027302;28;20124;-77
2022/07/23 11:15:11;;;;;;;2.95;0.52;;;18.60;99.90;;;;;;5043505;28;20041;-77
2022/07/23 11:18:00;;;;;;;2.03;0.70;;;18.30;99.90;;;;;;5033789;28;20110;-77
2022/07/23 11:20:26;;;;;;;3.05;2.22;;;18.50;99.90;;;;;;5050844;28;20064;-78
2022/07/23 11:22:54;;;;;;;7.03;4.20;;;18.40;99.90;;;;;;5033849;28;20080;-76
2022/07/23 11:25:23;;;;;;;0.45;0.45;;;18.50;99.90;;;;;;5047294;28;20051;-72
2022/07/23 11:27:51;;;;;;;2.35;0.63;;;18.60;99.90;;;;;;5035154;28;20456;-72
2022/07/23 11:30:31;;;;;;;3.30;0.52;;;18.60;99.90;;;;;;5028195;28;20040;-72
2022/07/23 11:33:08;;;;;;;3.33;0.50;;;18.60;99.90;;;;;;5051954;28;20076;-71
2022/07/23 11:35:40;;;;;;;3.95;0.90;;;18.80;99.90;;;;;;5049610;28;20051;-72
2022/07/23 11:38:22;;;;;;;1.02;0.60;;;18.80;99.90;;;;;;5030161;28;20056;-73
2022/07/23 11:40:50;;;;;;;0.73;0.50;;;18.90;99.90;;;;;;5047485;28;20120;-75
2022/07/23 11:43:17;;;;;;;4.80;2.67;;;19.10;99.90;;;;;;5032209;28;20047;-73
2022/07/23 11:45:48;;;;;;;1.88;0.95;;;19.90;99.90;;;;;;5045387;28;20509;-74
2022/07/23 11:48:23;;;;;;;2.13;0.60;;;19.40;99.90;;;;;;5044990;28;20056;-80
2022/07/23 11:50:50;;;;;;;3.90;0.52;;;19.50;99.90;;;;;;5044137;28;20056;-81
2022/07/23 11:53:30;;;;;;;2.95;0.57;;;19.60;99.90;;;;;;5031206;28;20481;-77
2022/07/23 11:56:10;;;;;;;4.00;0.70;;;19.60;99.90;;;;;;5051126;28;20040;-83
2022/07/23 11:58:39;;;;;;;2.92;0.60;;;19.60;99.90;;;;;;5023982;28;20378;-84
2022/07/23 12:01:05;;;;;;;2.97;0.70;;;19.60;99.90;;;;;;5010887;28;20049;-84
2022/07/23 12:03:31;;;;;;;2.28;0.88;;;19.60;99.90;;;;;;5031992;28;20050;-83
2022/07/23 12:05:58;;;;;;;4.45;0.50;;;19.70;99.90;;;;;;5027198;28;20033;-83
2022/07/23 12:08:24;;;;;;;2.30;0.60;;;20.40;99.90;;;;;;5026075;28;20136;-73
2022/07/23 12:10:50;;;;;;;0.90;0.32;;;19.90;99.90;;;;;;5021880;28;20124;-75
2022/07/23 12:13:18;;;;;;;2.35;0.60;;;19.90;99.90;;;;;;5028495;28;20056;-75
2022/07/23 12:15:49;;;;;;;2.47;0.50;;;20.70;99.90;;;;;;5029068;28;20073;-74
2022/07/23 12:18:18;;;;;;;2.50;0.70;;;20.10;99.90;;;;;;5023264;28;20045;-74
2022/07/23 12:20:47;;;;;;;2.05;0.70;;;20.10;99.90;;;;;;5020746;28;20473;-75
2022/07/23 12:23:15;;;;;;;7.22;0.88;;;20.50;99.90;;;;;;5031293;28;20041;-75
2022/07/23 12:25:43;;;;;;;1.73;0.60;;;20.40;99.90;;;;;;5026484;28;20136;-76
2022/07/23 12:28:15;;;;;;;1.38;0.60;;;20.40;99.90;;;;;;5028900;28;20045;-75
2022/07/23 12:30:45;;;;;;;2.95;0.80;;;20.50;99.90;;;;;;5027909;28;20041;-74
2022/07/23 12:33:13;;;;;;;1.13;0.60;;;20.70;99.90;;;;;;5025861;28;20037;-72
2022/07/23 12:35:44;;;;;;;0.95;0.60;;;21.00;99.90;;;;;;5019484;28;20157;-72
2022/07/23 12:38:14;;;;;;;1.85;0.68;;;21.10;99.90;;;;;;5027451;28;20051;-73
2022/07/23 12:40:49;;;;;;;3.10;0.60;;;21.20;99.90;;;;;;5040433;28;20127;-73
2022/07/23 12:43:22;;;;;;;0.95;0.50;;;21.20;99.90;;;;;;5025375;28;20068;-74
2022/07/23 12:46:07;;;;;;;2.22;0.30;;;21.40;99.90;;;;;;5021635;28;20121;-75
2022/07/23 12:48:36;;;;;;;2.60;0.93;;;21.60;99.90;;;;;;5023546;28;20049;-78
2022/07/23 12:51:06;;;;;;;2.50;0.57;;;21.70;99.90;;;;;;5023285;28;20040;-75
2022/07/23 12:53:40;;;;;;;2.58;0.30;;;21.50;99.90;;;;;;5021533;28;20046;-78